KGRF/GRF METAR and TAF weather

Enter ICAO airport designator
Station Type Date Time Source
KGRF METAR 2021/05/14 13:58 UTC NOAA

KGRF 141358Z 00000KT 5SM BR OVC003 08/07 A3015 RMK AO2A SLP213 T00760065 $


Station Type Date Time Source
KGRF Decoded METAR 2021/05/14 13:58 UTC NOAA

Fort Lewis / Gray U. S. Army Airfield, WA, United States (KGRF) 47-07N 122-33W 87M
May 14, 2021 - 09:58 AM EDT / 2021.05.14 1358 UTC
Wind: Calm:0
Visibility: 5 mile(s):0
Sky conditions: overcast
Weather: mist
Temperature: 45.7 F (7.6 C)
Dew Point: 43.7 F (6.5 C)
Relative Humidity: 92%
Pressure (altimeter): 30.15 in. Hg (1020 hPa)
ob: KGRF 141358Z 00000KT 5SM BR OVC003 08/07 A3015 RMK AO2A SLP213 T00760065
cycle: 14

Station Type Date Time Source
KGRF TAF 2021/05/14 14:54 UTC NOAA

TAF TAF
AMD KGRF 141400Z 1414/1519 33005KT 9999 BKN003 QNH3013INS
BECMG 1416/1417 33005KT 9999 FEW200 QNH3007INS
BECMG 1423/1424 33010G15KT 9999 SCT035 QNH3006INS
BECMG 1514/1515 30010KT 4800 BR SKC QNH3010INS TX22/1423Z TN08/1414Z

Example: see airport list